Time;durP1;ratioP1;P1;durP2;ratioP2;P2;SDS_P1;SDS_P2;PMS_P1;PMS_P2;Temp;Humidity;BMP_temperature;BMP_pressure;BME280_temperature;BME280_humidity;BME280_pressure;Samples;Min_cycle;Max_cycle;Signal;HPM_P1;HPM_P2
2023/09/18 00:00:42;;;;;;;5.93;5.00;;;21.60;99.90;;;;;;5008102;28;20667;-77
2023/09/18 00:03:08;;;;;;;5.15;4.65;;;21.60;99.90;;;;;;5012465;28;20200;-77
2023/09/18 00:05:34;;;;;;;6.22;4.93;;;21.50;99.90;;;;;;5012452;28;20703;-77
2023/09/18 00:08:01;;;;;;;7.03;5.25;;;21.60;99.90;;;;;;5027574;28;20201;-78
2023/09/18 00:10:28;;;;;;;9.20;5.72;;;21.50;99.90;;;;;;5010994;28;20248;-79
2023/09/18 00:12:54;;;;;;;6.40;5.10;;;21.50;99.90;;;;;;5008681;28;20251;-76
2023/09/18 00:15:20;;;;;;;7.50;5.13;;;21.40;99.90;;;;;;5012993;28;20710;-78
2023/09/18 00:17:46;;;;;;;7.05;5.30;;;21.30;99.90;;;;;;5012555;28;20279;-78
2023/09/18 00:20:11;;;;;;;6.63;5.40;;;21.40;99.90;;;;;;5012537;28;20259;-78
2023/09/18 00:22:37;;;;;;;7.53;5.80;;;21.30;99.90;;;;;;5006808;28;20283;-78
2023/09/18 00:25:03;;;;;;;6.70;5.13;;;21.20;99.90;;;;;;5007482;28;20299;-77
2023/09/18 00:27:29;;;;;;;5.88;4.78;;;21.20;99.90;;;;;;5011969;28;20181;-78
2023/09/18 00:29:55;;;;;;;7.18;4.90;;;21.10;99.90;;;;;;5017339;28;20703;-78
2023/09/18 00:32:20;;;;;;;5.70;4.95;;;21.10;99.90;;;;;;5027257;28;20209;-78
2023/09/18 00:34:46;;;;;;;7.07;5.13;;;21.20;99.90;;;;;;5010236;28;20212;-78
2023/09/18 00:37:12;;;;;;;5.43;4.80;;;21.10;99.90;;;;;;5012651;28;20212;-78
2023/09/18 00:39:38;;;;;;;5.35;4.65;;;21.10;99.90;;;;;;5013310;28;20193;-78
2023/09/18 00:42:04;;;;;;;6.55;4.55;;;21.10;99.90;;;;;;5017327;28;20813;-77
2023/09/18 00:44:30;;;;;;;6.07;4.68;;;21.10;99.90;;;;;;5012537;28;20243;-78
2023/09/18 00:46:56;;;;;;;6.70;4.75;;;21.10;99.90;;;;;;5011726;28;20302;-78
2023/09/18 00:49:22;;;;;;;4.88;4.38;;;21.10;99.90;;;;;;5012759;28;20208;-78
2023/09/18 00:51:49;;;;;;;6.18;4.70;;;21.10;99.90;;;;;;5004269;28;20181;-77
2023/09/18 00:54:18;;;;;;;5.30;4.80;;;21.10;99.90;;;;;;5009544;28;20204;-78
2023/09/18 00:56:45;;;;;;;5.72;5.10;;;21.10;99.90;;;;;;5012162;28;20593;-78
2023/09/18 00:59:11;;;;;;;7.07;4.93;;;21.10;99.90;;;;;;5012094;28;20632;-77
2023/09/18 01:01:38;;;;;;;5.32;4.80;;;21.00;99.90;;;;;;5006964;28;20212;-77
2023/09/18 01:04:04;;;;;;;5.47;4.53;;;21.00;99.90;;;;;;5016962;28;20225;-79
2023/09/18 01:06:30;;;;;;;5.57;4.80;;;21.00;99.90;;;;;;5013163;28;20173;-77
2023/09/18 01:08:56;;;;;;;4.93;4.47;;;21.00;99.90;;;;;;5010081;28;20243;-77
2023/09/18 01:11:28;;;;;;;7.90;4.82;;;21.10;99.90;;;;;;5010314;28;20252;-75
2023/09/18 01:14:11;;;;;;;6.22;4.68;;;21.00;99.90;;;;;;5010173;28;20219;-78
2023/09/18 01:16:57;;;;;;;5.00;4.50;;;21.00;99.90;;;;;;5012085;28;20328;-77
2023/09/18 01:19:37;;;;;;;5.40;4.70;;;20.90;99.90;;;;;;5025378;28;20204;-77
2023/09/18 01:22:04;;;;;;;5.93;4.80;;;20.90;99.90;;;;;;5011217;28;20210;-77
2023/09/18 01:24:32;;;;;;;6.47;4.90;;;20.80;99.90;;;;;;5011369;28;20193;-76
2023/09/18 01:26:57;;;;;;;5.88;5.05;;;20.80;99.90;;;;;;5012841;28;20212;-76
2023/09/18 01:29:23;;;;;;;5.78;5.05;;;20.80;99.90;;;;;;5009916;28;20583;-77
2023/09/18 01:31:48;;;;;;;6.70;4.57;;;20.80;99.90;;;;;;5007420;28;20205;-76
2023/09/18 01:34:26;;;;;;;5.68;4.57;;;20.70;99.90;;;;;;5023262;28;20382;-77
2023/09/18 01:36:52;;;;;;;6.65;4.20;;;20.70;99.90;;;;;;5005310;28;20169;-78
2023/09/18 01:39:20;;;;;;;5.68;4.78;;;20.80;99.90;;;;;;5012433;28;20648;-75
2023/09/18 01:41:46;;;;;;;6.80;4.93;;;20.70;99.90;;;;;;5008538;28;20247;-74
2023/09/18 01:44:12;;;;;;;5.25;4.50;;;20.70;99.90;;;;;;5010964;28;20221;-77
2023/09/18 01:46:38;;;;;;;5.95;4.93;;;20.70;99.90;;;;;;5011138;28;20289;-78
2023/09/18 01:49:04;;;;;;;5.00;4.50;;;20.60;99.90;;;;;;5019141;28;20240;-77
2023/09/18 01:51:30;;;;;;;4.82;4.22;;;20.60;99.90;;;;;;5011279;28;20714;-77
2023/09/18 01:53:56;;;;;;;7.20;5.20;;;20.60;99.90;;;;;;5009185;28;20266;-77
2023/09/18 01:56:23;;;;;;;5.03;4.07;;;20.50;99.90;;;;;;5009916;28;20205;-77
2023/09/18 01:58:49;;;;;;;6.15;4.90;;;20.50;99.90;;;;;;5010264;28;20262;-75
2023/09/18 02:01:15;;;;;;;6.78;4.60;;;20.50;99.90;;;;;;5010005;28;20209;-76
2023/09/18 02:03:41;;;;;;;5.00;4.20;;;20.50;99.90;;;;;;5002531;28;20204;-77
2023/09/18 02:06:10;;;;;;;8.10;4.88;;;20.50;99.90;;;;;;5011239;28;21915;-79
2023/09/18 02:08:36;;;;;;;5.43;4.55;;;20.40;99.90;;;;;;5009928;28;20283;-76
2023/09/18 02:11:02;;;;;;;5.85;4.72;;;20.40;99.90;;;;;;5008466;28;20256;-77
2023/09/18 02:13:28;;;;;;;8.25;4.82;;;20.30;99.90;;;;;;5009389;28;20299;-77
2023/09/18 02:15:55;;;;;;;5.07;4.50;;;20.30;99.90;;;;;;5025737;28;20268;-76
2023/09/18 02:18:20;;;;;;;5.65;4.53;;;20.20;99.90;;;;;;5010715;28;20161;-77
2023/09/18 02:20:48;;;;;;;6.38;4.28;;;20.20;99.90;;;;;;5007420;28;20580;-75
2023/09/18 02:23:18;;;;;;;5.63;4.68;;;20.20;99.90;;;;;;4998864;28;20299;-75
2023/09/18 02:25:44;;;;;;;6.90;4.93;;;20.20;99.90;;;;;;5009596;28;20212;-77
2023/09/18 02:28:10;;;;;;;6.50;4.60;;;20.10;99.90;;;;;;5006590;28;20209;-77
2023/09/18 02:30:36;;;;;;;5.80;4.78;;;20.20;99.90;;;;;;5024187;28;20212;-78
2023/09/18 02:33:03;;;;;;;4.93;4.43;;;20.10;99.90;;;;;;5007896;28;20292;-77
2023/09/18 02:35:29;;;;;;;8.32;5.00;;;20.20;99.90;;;;;;5009371;28;20216;-77
2023/09/18 02:37:55;;;;;;;6.80;4.40;;;20.20;99.90;;;;;;5009544;28;20204;-76
2023/09/18 02:40:20;;;;;;;6.15;4.90;;;20.20;99.90;;;;;;5006252;28;20217;-78
2023/09/18 02:42:46;;;;;;;5.15;4.38;;;20.10;99.90;;;;;;5001836;28;20168;-76
2023/09/18 02:45:12;;;;;;;5.78;4.28;;;20.10;99.90;;;;;;5000428;28;20544;-77
2023/09/18 02:47:40;;;;;;;5.90;4.38;;;20.20;99.90;;;;;;5024363;28;20240;-76
2023/09/18 02:50:07;;;;;;;5.53;4.75;;;20.10;99.90;;;;;;5024919;28;20221;-76
2023/09/18 02:52:32;;;;;;;5.75;4.90;;;20.10;99.90;;;;;;5021496;28;20220;-76
2023/09/18 02:54:58;;;;;;;4.90;4.40;;;20.00;99.90;;;;;;5006977;28;20244;-76
2023/09/18 02:57:24;;;;;;;7.95;4.13;;;20.00;99.90;;;;;;5004701;28;20642;-76
2023/09/18 02:59:49;;;;;;;4.85;4.15;;;20.00;99.90;;;;;;5006139;28;20267;-76
2023/09/18 03:02:15;;;;;;;5.45;4.10;;;20.00;99.90;;;;;;5005471;28;20567;-76
2023/09/18 03:04:40;;;;;;;5.15;4.60;;;19.90;99.90;;;;;;5008947;28;20228;-76
2023/09/18 03:07:06;;;;;;;6.07;4.57;;;19.90;99.90;;;;;;5007299;28;20287;-76
2023/09/18 03:09:32;;;;;;;6.30;4.75;;;19.90;99.90;;;;;;5010369;28;20243;-77
2023/09/18 03:11:57;;;;;;;10.05;4.78;;;19.80;99.90;;;;;;5018519;28;20763;-75
2023/09/18 03:14:23;;;;;;;5.68;3.63;;;19.90;99.90;;;;;;5025297;28;20216;-76
2023/09/18 03:16:50;;;;;;;4.88;4.25;;;19.80;99.90;;;;;;5009568;28;20299;-75
2023/09/18 03:19:15;;;;;;;5.63;4.43;;;19.80;99.90;;;;;;4999427;28;20198;-75
2023/09/18 03:21:41;;;;;;;4.68;4.18;;;19.80;99.90;;;;;;5002215;28;20177;-76
2023/09/18 03:24:07;;;;;;;7.18;4.35;;;19.80;99.90;;;;;;5024659;28;20700;-76
2023/09/18 03:26:32;;;;;;;8.02;4.88;;;19.70;99.90;;;;;;5006738;28;20216;-76
2023/09/18 03:28:58;;;;;;;5.75;4.70;;;19.70;99.90;;;;;;5003962;28;20217;-76
2023/09/18 03:31:24;;;;;;;5.68;4.97;;;19.70;99.90;;;;;;5002749;28;20198;-76
2023/09/18 03:33:49;;;;;;;5.32;4.80;;;19.70;99.90;;;;;;5024367;28;20626;-75
2023/09/18 03:36:15;;;;;;;4.72;4.28;;;19.70;99.90;;;;;;5006222;28;20667;-76
2023/09/18 03:38:40;;;;;;;6.60;4.93;;;19.60;99.90;;;;;;5006755;28;20212;-77
2023/09/18 03:41:06;;;;;;;4.90;4.40;;;19.60;99.90;;;;;;5005983;28;20253;-78
2023/09/18 03:43:32;;;;;;;8.80;5.03;;;19.60;99.90;;;;;;5028490;28;20205;-77
2023/09/18 03:46:07;;;;;;;5.85;4.88;;;19.50;99.90;;;;;;5028196;28;20178;-73
2023/09/18 03:48:37;;;;;;;8.35;4.78;;;19.50;99.90;;;;;;5001289;28;20199;-76
2023/09/18 03:51:06;;;;;;;7.22;4.80;;;19.50;99.90;;;;;;5012497;28;20208;-76
2023/09/18 03:53:33;;;;;;;7.03;5.10;;;19.40;99.90;;;;;;5012371;28;20236;-76
2023/09/18 03:55:59;;;;;;;6.63;5.45;;;19.50;99.90;;;;;;5008115;28;20573;-74
2023/09/18 03:58:24;;;;;;;5.60;4.45;;;19.40;99.90;;;;;;5024848;28;20612;-76
2023/09/18 04:00:51;;;;;;;4.93;4.38;;;19.40;99.90;;;;;;5006237;28;20271;-76
2023/09/18 04:03:17;;;;;;;8.07;4.55;;;19.40;99.90;;;;;;5003968;28;20181;-74
2023/09/18 04:05:42;;;;;;;7.43;4.88;;;19.50;99.90;;;;;;5027443;28;20216;-76
2023/09/18 04:08:08;;;;;;;6.40;5.55;;;19.40;99.90;;;;;;5006578;28;20601;-76
2023/09/18 04:10:34;;;;;;;7.63;5.43;;;19.30;99.90;;;;;;5007456;28;20255;-75
2023/09/18 04:13:00;;;;;;;7.78;5.28;;;19.30;99.90;;;;;;5007503;28;20233;-74
2023/09/18 04:15:27;;;;;;;6.07;4.30;;;19.40;99.90;;;;;;5009664;28;20221;-75
2023/09/18 04:17:53;;;;;;;8.63;5.13;;;19.20;99.90;;;;;;5010075;28;20296;-75
2023/09/18 04:20:19;;;;;;;7.25;5.30;;;19.30;99.90;;;;;;5011069;28;20304;-76
2023/09/18 04:22:50;;;;;;;7.35;5.68;;;19.30;99.90;;;;;;5008257;28;20240;-76
2023/09/18 04:25:16;;;;;;;6.22;4.93;;;19.30;99.90;;;;;;5028157;28;20243;-75
2023/09/18 04:27:42;;;;;;;7.07;5.30;;;19.30;99.90;;;;;;5012096;28;20599;-76
2023/09/18 04:30:11;;;;;;;5.50;4.70;;;19.30;99.90;;;;;;5023289;28;20209;-76
2023/09/18 04:32:37;;;;;;;6.20;4.57;;;19.30;99.90;;;;;;5021873;28;20771;-76
2023/09/18 04:35:05;;;;;;;7.50;5.32;;;19.20;99.90;;;;;;5004990;28;20244;-75
2023/09/18 04:37:30;;;;;;;6.97;5.30;;;19.20;99.90;;;;;;5006042;28;20201;-76
2023/09/18 04:39:58;;;;;;;10.65;5.50;;;19.30;99.90;;;;;;5009439;28;20185;-76
2023/09/18 04:42:23;;;;;;;9.15;5.15;;;19.20;99.90;;;;;;5012271;28;20486;-75
2023/09/18 04:44:49;;;;;;;5.43;4.53;;;19.10;99.90;;;;;;5012234;28;20213;-75
2023/09/18 04:47:15;;;;;;;6.72;5.25;;;19.10;99.90;;;;;;5012009;28;20301;-76
2023/09/18 04:49:40;;;;;;;10.23;6.28;;;19.10;99.90;;;;;;5027325;28;20209;-76
2023/09/18 04:52:06;;;;;;;8.40;5.40;;;19.10;99.90;;;;;;5011296;28;20213;-77
2023/09/18 04:54:32;;;;;;;6.57;5.72;;;19.20;99.90;;;;;;5008096;28;20251;-77
2023/09/18 04:56:57;;;;;;;7.63;5.03;;;19.10;99.90;;;;;;5005057;28;20700;-75
2023/09/18 04:59:23;;;;;;;5.55;4.60;;;19.10;99.90;;;;;;5011885;28;20220;-76
2023/09/18 05:01:48;;;;;;;5.72;5.03;;;19.20;99.90;;;;;;5010592;28;20233;-74
2023/09/18 05:04:14;;;;;;;6.60;4.72;;;19.30;99.90;;;;;;5019634;28;20216;-77
2023/09/18 05:06:41;;;;;;;6.53;4.95;;;19.30;99.90;;;;;;5011368;28;20177;-77
2023/09/18 05:09:07;;;;;;;6.13;4.75;;;19.30;99.90;;;;;;5007920;28;20208;-77
2023/09/18 05:11:34;;;;;;;6.80;5.32;;;19.40;99.90;;;;;;5004295;28;20202;-76
2023/09/18 05:13:59;;;;;;;6.13;5.03;;;19.30;99.90;;;;;;5026831;28;20248;-77
2023/09/18 05:16:25;;;;;;;7.35;4.90;;;19.40;99.90;;;;;;5005157;28;20221;-75
2023/09/18 05:18:50;;;;;;;6.18;4.80;;;19.30;99.90;;;;;;5008838;28;20209;-77
2023/09/18 05:21:17;;;;;;;6.10;4.43;;;19.30;99.90;;;;;;5026163;28;20173;-76
2023/09/18 05:23:43;;;;;;;6.13;5.28;;;19.40;99.90;;;;;;5009472;28;20251;-77
2023/09/18 05:26:09;;;;;;;7.22;4.82;;;19.60;99.90;;;;;;5008669;28;20229;-76
2023/09/18 05:28:34;;;;;;;5.60;4.47;;;19.60;99.90;;;;;;5023108;28;20695;-76
2023/09/18 05:31:00;;;;;;;6.50;5.55;;;19.50;99.90;;;;;;5009127;28;20255;-76
2023/09/18 05:33:26;;;;;;;8.45;4.72;;;19.70;99.90;;;;;;5009191;28;20846;-76
2023/09/18 05:35:52;;;;;;;7.18;4.80;;;19.60;99.90;;;;;;5011494;28;20703;-75
2023/09/18 05:38:17;;;;;;;8.02;5.20;;;20.20;99.90;;;;;;5009498;28;20292;-76
2023/09/18 05:40:44;;;;;;;6.65;5.00;;;20.60;99.90;;;;;;5026025;28;20336;-76
2023/09/18 05:43:11;;;;;;;5.28;4.35;;;20.80;99.90;;;;;;5011298;28;20220;-76
2023/09/18 05:45:37;;;;;;;6.00;4.57;;;21.20;99.90;;;;;;5003670;28;20224;-77
2023/09/18 05:48:04;;;;;;;6.60;4.28;;;22.20;99.90;;;;;;5003459;28;20308;-76
2023/09/18 05:50:31;;;;;;;4.90;4.18;;;23.70;99.90;;;;;;5007504;28;20217;-76
2023/09/18 05:53:00;;;;;;;5.38;4.18;;;24.30;99.90;;;;;;5005989;28;20204;-77
2023/09/18 05:55:26;;;;;;;7.57;4.35;;;24.60;99.90;;;;;;5009988;28;20212;-79
2023/09/18 05:57:52;;;;;;;5.20;4.55;;;24.60;99.90;;;;;;5010573;28;20173;-77
2023/09/18 06:00:18;;;;;;;6.35;4.30;;;24.40;99.90;;;;;;5026429;28;20217;-75
2023/09/18 06:02:45;;;;;;;7.30;4.95;;;25.00;99.90;;;;;;5007274;28;20232;-76
2023/09/18 06:05:11;;;;;;;6.10;4.20;;;24.90;99.90;;;;;;5009425;28;20212;-76
2023/09/18 06:07:37;;;;;;;6.03;4.13;;;24.80;99.90;;;;;;5006797;28;20216;-76
2023/09/18 06:10:03;;;;;;;6.78;3.95;;;25.50;99.90;;;;;;5009529;28;20224;-77
2023/09/18 06:12:29;;;;;;;8.75;4.65;;;24.90;99.90;;;;;;5010675;28;20181;-77
2023/09/18 06:14:54;;;;;;;6.53;4.57;;;25.40;99.90;;;;;;5010632;28;20227;-78
2023/09/18 06:17:20;;;;;;;6.50;3.78;;;25.20;99.90;;;;;;5010046;28;20295;-79
2023/09/18 06:19:46;;;;;;;7.45;4.28;;;24.60;99.90;;;;;;5010637;28;20216;-75
2023/09/18 06:22:12;;;;;;;6.47;4.47;;;24.20;99.90;;;;;;5020785;28;20555;-75
2023/09/18 06:24:38;;;;;;;7.28;4.40;;;23.90;99.90;;;;;;5010923;28;20208;-75
2023/09/18 06:27:04;;;;;;;4.93;3.92;;;23.60;99.90;;;;;;5006826;28;20224;-76
2023/09/18 06:29:30;;;;;;;6.07;4.63;;;23.10;99.90;;;;;;5001204;28;20217;-78
2023/09/18 06:31:56;;;;;;;7.07;4.53;;;23.70;99.90;;;;;;5008895;28;20205;-77
2023/09/18 06:34:22;;;;;;;7.53;4.32;;;24.40;99.90;;;;;;5025623;28;20262;-75
2023/09/18 06:36:47;;;;;;;5.70;4.75;;;25.00;99.90;;;;;;5010102;28;20185;-75
2023/09/18 06:39:14;;;;;;;10.00;4.88;;;25.10;99.90;;;;;;5009107;28;20228;-77
2023/09/18 06:41:39;;;;;;;7.65;5.20;;;26.00;99.90;;;;;;5003828;28;20698;-77
2023/09/18 06:44:05;;;;;;;6.55;3.95;;;27.20;99.90;;;;;;5007545;28;20243;-77
2023/09/18 06:46:31;;;;;;;7.93;4.43;;;28.40;99.90;;;;;;5015711;28;20721;-76
2023/09/18 06:48:57;;;;;;;6.20;4.57;;;28.60;99.90;;;;;;5010139;28;20220;-76
2023/09/18 06:51:25;;;;;;;5.22;4.50;;;28.80;99.90;;;;;;5010297;28;20173;-76
2023/09/18 06:53:51;;;;;;;5.85;4.03;;;28.70;99.90;;;;;;5025394;28;20215;-74
2023/09/18 06:56:17;;;;;;;7.75;4.10;;;28.40;99.90;;;;;;5025228;28;20672;-74
2023/09/18 06:58:42;;;;;;;5.13;4.15;;;28.40;99.90;;;;;;5005036;28;20212;-77
2023/09/18 07:01:09;;;;;;;5.22;4.50;;;29.40;99.90;;;;;;5005651;28;20209;-76
2023/09/18 07:03:36;;;;;;;7.65;5.50;;;28.90;99.90;;;;;;5003689;28;20233;-76
2023/09/18 07:06:04;;;;;;;6.53;4.15;;;29.00;99.90;;;;;;5018100;28;20219;-76
2023/09/18 07:08:30;;;;;;;6.65;4.30;;;30.00;99.90;;;;;;5009783;28;20267;-77
2023/09/18 07:10:56;;;;;;;9.75;4.25;;;29.80;99.90;;;;;;5003230;28;20220;-76
2023/09/18 07:13:22;;;;;;;5.40;3.63;;;29.80;99.90;;;;;;5008099;28;20274;-77
2023/09/18 07:15:48;;;;;;;6.30;4.07;;;29.80;99.90;;;;;;5010535;28;20209;-75
2023/09/18 07:18:14;;;;;;;4.28;3.67;;;29.90;99.90;;;;;;5014449;28;20173;-76
2023/09/18 07:20:46;;;;;;;6.13;4.00;;;30.00;99.90;;;;;;5017010;28;20696;-75
2023/09/18 07:23:12;;;;;;;6.53;3.92;;;30.70;99.90;;;;;;5010667;28;20213;-76
2023/09/18 07:25:38;;;;;;;6.30;3.30;;;30.90;99.90;;;;;;5018413;28;20213;-79
2023/09/18 07:28:06;;;;;;;4.18;3.40;;;31.10;99.90;;;;;;5013348;28;20221;-77
2023/09/18 07:30:32;;;;;;;4.60;4.18;;;31.30;99.90;;;;;;5013162;28;20292;-79
2023/09/18 07:32:57;;;;;;;4.25;3.80;;;31.60;99.90;;;;;;5008278;28;20283;-76
2023/09/18 07:35:24;;;;;;;4.93;3.67;;;30.40;99.90;;;;;;5009644;28;20635;-76
2023/09/18 07:37:49;;;;;;;4.55;4.15;;;30.60;99.90;;;;;;5013497;28;20724;-75
2023/09/18 07:40:18;;;;;;;4.05;3.50;;;30.90;99.90;;;;;;5011903;28;20273;-76
2023/09/18 07:42:44;;;;;;;4.75;3.80;;;30.30;99.90;;;;;;5008330;28;20178;-75
2023/09/18 07:45:10;;;;;;;6.00;3.80;;;30.60;99.90;;;;;;5008166;28;20275;-76
2023/09/18 07:47:36;;;;;;;3.90;3.47;;;30.50;99.90;;;;;;5015381;28;20213;-75
2023/09/18 07:50:01;;;;;;;4.18;3.58;;;30.20;99.90;;;;;;5029616;28;20216;-76
2023/09/18 07:52:28;;;;;;;7.15;4.00;;;30.50;99.90;;;;;;5013047;28;20211;-76
2023/09/18 07:54:53;;;;;;;4.47;3.60;;;30.40;99.90;;;;;;5009725;28;20212;-81
2023/09/18 07:57:20;;;;;;;6.15;4.00;;;30.10;99.90;;;;;;5006356;28;20659;-74
2023/09/18 07:59:46;;;;;;;6.18;4.03;;;28.90;99.90;;;;;;5004882;28;20755;-74
2023/09/18 08:02:12;;;;;;;4.50;3.78;;;29.20;99.90;;;;;;4996257;28;20304;-76
2023/09/18 08:04:37;;;;;;;5.15;3.30;;;29.90;99.90;;;;;;4998800;28;20228;-75
2023/09/18 08:07:05;;;;;;;7.43;3.70;;;30.20;99.90;;;;;;5004436;28;20216;-76
2023/09/18 08:09:31;;;;;;;4.10;3.42;;;30.90;99.90;;;;;;4998260;28;20284;-75
2023/09/18 08:11:57;;;;;;;5.05;3.60;;;30.30;99.90;;;;;;5005279;28;20267;-75
2023/09/18 08:14:23;;;;;;;4.07;3.60;;;30.50;99.90;;;;;;5006354;28;20209;-74
2023/09/18 08:16:55;;;;;;;8.90;3.00;;;30.70;99.90;;;;;;5009790;28;20236;-76
2023/09/18 08:19:21;;;;;;;5.72;2.88;;;31.30;99.90;;;;;;5025267;28;20212;-75
2023/09/18 08:21:46;;;;;;;3.80;3.25;;;31.10;99.90;;;;;;5007025;28;20177;-74
2023/09/18 08:24:13;;;;;;;6.18;3.33;;;31.20;99.90;;;;;;5003989;28;20213;-75
2023/09/18 08:26:38;;;;;;;4.63;3.63;;;31.30;99.90;;;;;;5006969;28;20217;-75
2023/09/18 08:29:04;;;;;;;4.45;3.40;;;30.60;99.90;;;;;;5005775;28;20220;-75
2023/09/18 08:31:31;;;;;;;4.13;3.70;;;30.00;99.90;;;;;;5007019;28;20738;-75
2023/09/18 08:33:57;;;;;;;5.88;3.88;;;29.50;99.90;;;;;;5009850;28;20236;-75
2023/09/18 08:36:23;;;;;;;5.97;3.50;;;29.90;99.90;;;;;;5007665;28;20205;-73
2023/09/18 08:38:48;;;;;;;7.30;4.10;;;29.80;99.90;;;;;;5003974;28;20210;-74
2023/09/18 08:41:17;;;;;;;5.18;3.78;;;29.40;99.90;;;;;;5007655;28;20201;-75
2023/09/18 08:43:44;;;;;;;4.57;3.75;;;29.90;99.90;;;;;;5001765;28;20595;-75
2023/09/18 08:46:10;;;;;;;6.68;3.65;;;30.20;99.90;;;;;;5007981;28;20213;-76
2023/09/18 08:48:36;;;;;;;6.32;4.05;;;30.10;99.90;;;;;;5003474;28;20189;-76
2023/09/18 08:51:04;;;;;;;6.65;4.07;;;29.80;99.90;;;;;;5013072;28;20696;-76
2023/09/18 08:53:35;;;;;;;6.10;4.00;;;29.70;99.90;;;;;;5011731;28;20204;-78
2023/09/18 08:56:03;;;;;;;4.65;3.63;;;29.10;99.90;;;;;;5008596;28;20213;-76
2023/09/18 08:58:35;;;;;;;5.22;3.67;;;28.80;99.90;;;;;;5024721;28;20760;-76
2023/09/18 09:01:03;;;;;;;4.63;3.78;;;28.60;99.90;;;;;;5007932;28;20220;-76
2023/09/18 09:03:29;;;;;;;7.80;3.38;;;28.30;99.90;;;;;;5011713;28;20173;-76
2023/09/18 09:05:56;;;;;;;5.68;3.72;;;28.10;99.90;;;;;;5008120;28;20209;-76
2023/09/18 09:08:21;;;;;;;5.63;3.47;;;27.90;99.90;;;;;;5009705;28;20699;-76
2023/09/18 09:10:48;;;;;;;3.83;3.50;;;28.30;99.90;;;;;;5010996;28;20308;-76
2023/09/18 09:13:14;;;;;;;5.53;3.80;;;28.30;99.90;;;;;;5009439;28;20235;-74
2023/09/18 09:15:47;;;;;;;3.67;3.28;;;28.50;99.90;;;;;;5008382;28;20184;-77
2023/09/18 09:18:17;;;;;;;4.38;3.50;;;29.00;99.90;;;;;;5010409;28;20228;-77
2023/09/18 09:20:59;;;;;;;7.03;3.88;;;29.40;99.90;;;;;;5008475;28;20213;-76
2023/09/18 09:23:30;;;;;;;3.60;3.30;;;28.50;99.90;;;;;;5010691;28;20232;-77
2023/09/18 09:26:15;;;;;;;4.60;3.50;;;28.00;99.90;;;;;;5003954;28;20244;-77
2023/09/18 09:28:43;;;;;;;4.32;3.58;;;27.90;99.90;;;;;;5028689;28;20205;-77
2023/09/18 09:31:10;;;;;;;6.20;3.33;;;28.20;99.90;;;;;;5009366;28;20220;-76
2023/09/18 09:33:38;;;;;;;10.20;3.80;;;28.80;99.90;;;;;;5004727;28;20208;-76
2023/09/18 09:36:05;;;;;;;3.75;3.45;;;28.40;99.90;;;;;;5024520;28;20216;-76
2023/09/18 09:38:33;;;;;;;8.75;3.55;;;28.40;99.90;;;;;;5010877;28;20334;-76
2023/09/18 09:41:02;;;;;;;5.05;3.10;;;28.50;99.90;;;;;;5010581;28;20869;-77
2023/09/18 09:43:31;;;;;;;3.25;2.83;;;28.30;99.90;;;;;;5010843;28;20715;-76
2023/09/18 09:45:59;;;;;;;5.32;2.85;;;28.50;99.90;;;;;;5023123;28;20272;-77
2023/09/18 09:48:27;;;;;;;5.75;3.28;;;28.40;99.90;;;;;;5008589;28;20231;-76
2023/09/18 09:51:00;;;;;;;3.38;3.00;;;28.30;99.90;;;;;;5007252;28;20213;-75
2023/09/18 09:53:47;;;;;;;4.72;3.30;;;28.00;99.90;;;;;;5025343;28;20221;-76
2023/09/18 09:56:14;;;;;;;5.07;3.35;;;27.50;99.90;;;;;;5020995;28;20228;-75
2023/09/18 09:58:43;;;;;;;6.45;3.28;;;27.20;99.90;;;;;;5009076;28;20232;-76
2023/09/18 10:01:18;;;;;;;4.78;3.53;;;27.60;99.90;;;;;;5009098;28;20230;-76
2023/09/18 10:03:45;;;;;;;6.20;3.38;;;27.40;99.90;;;;;;5009466;28;20211;-76
2023/09/18 10:06:14;;;;;;;7.07;3.83;;;27.50;99.90;;;;;;5011832;28;20173;-76
2023/09/18 10:08:40;;;;;;;3.38;2.95;;;27.40;99.90;;;;;;5010847;28;20588;-76
2023/09/18 10:11:09;;;;;;;3.75;3.22;;;27.40;99.90;;;;;;5008328;28;20291;-74
2023/09/18 10:13:46;;;;;;;4.20;3.00;;;27.40;99.90;;;;;;5007941;28;20656;-76
2023/09/18 10:16:19;;;;;;;4.60;3.45;;;27.30;99.90;;;;;;5008440;28;20217;-76
2023/09/18 10:18:58;;;;;;;4.05;3.20;;;27.20;99.90;;;;;;5009171;28;20192;-76
2023/09/18 10:21:33;;;;;;;8.40;3.28;;;27.10;99.90;;;;;;5006482;28;20181;-76
2023/09/18 10:24:12;;;;;;;4.13;3.53;;;27.20;99.90;;;;;;5007188;28;20300;-76
2023/09/18 10:26:46;;;;;;;5.38;3.47;;;27.30;99.90;;;;;;5008470;28;20213;-72
2023/09/18 10:29:14;;;;;;;4.53;3.28;;;27.30;99.90;;;;;;5024881;28;20216;-75
2023/09/18 10:31:41;;;;;;;8.48;3.20;;;27.30;99.90;;;;;;5006090;28;20207;-75
2023/09/18 10:34:07;;;;;;;4.63;3.15;;;27.40;99.90;;;;;;5000809;28;20718;-71
2023/09/18 10:36:34;;;;;;;6.00;3.50;;;27.60;99.90;;;;;;5018869;28;20182;-75
2023/09/18 10:39:01;;;;;;;5.97;3.55;;;27.80;99.90;;;;;;5003031;28;20228;-74
2023/09/18 10:41:27;;;;;;;3.80;3.10;;;27.80;99.90;;;;;;5006173;28;20211;-75
2023/09/18 10:43:57;;;;;;;5.03;3.25;;;27.60;99.90;;;;;;5010264;28;20291;-74
2023/09/18 10:46:26;;;;;;;6.18;3.40;;;27.40;99.90;;;;;;5007742;28;20316;-74
2023/09/18 10:48:53;;;;;;;3.92;3.00;;;27.60;99.90;;;;;;5010318;28;20268;-75
2023/09/18 10:51:21;;;;;;;4.07;3.28;;;27.40;99.90;;;;;;5008740;28;21027;-77
2023/09/18 10:53:52;;;;;;;6.10;3.72;;;27.20;99.90;;;;;;5012334;28;20213;-75
2023/09/18 10:56:19;;;;;;;7.00;3.65;;;27.10;99.90;;;;;;5022192;28;20271;-77
2023/09/18 10:58:45;;;;;;;7.18;3.42;;;27.20;99.90;;;;;;5010881;28;20205;-78
2023/09/18 11:01:14;;;;;;;7.28;3.30;;;27.10;99.90;;;;;;5010070;28;20247;-78
2023/09/18 11:03:41;;;;;;;3.33;2.88;;;27.10;99.90;;;;;;5010677;28;20207;-77
2023/09/18 11:06:10;;;;;;;4.63;3.38;;;27.00;99.90;;;;;;5012003;28;20174;-76
2023/09/18 11:08:47;;;;;;;5.57;3.35;;;26.80;99.90;;;;;;5023262;28;20292;-75
2023/09/18 11:11:14;;;;;;;6.30;3.75;;;26.80;99.90;;;;;;5022479;28;20339;-74
2023/09/18 11:14:10;;;;;;;4.10;3.58;;;26.60;99.90;;;;;;5026043;28;20216;-73
2023/09/18 11:16:38;;;;;;;4.43;3.95;;;26.60;99.90;;;;;;5006676;28;20235;-74
2023/09/18 11:19:05;;;;;;;3.88;3.50;;;26.70;99.90;;;;;;5007124;28;20220;-74
2023/09/18 11:21:32;;;;;;;7.55;3.50;;;26.60;99.90;;;;;;5002438;28;20190;-76
2023/09/18 11:23:58;;;;;;;5.63;4.10;;;26.70;99.90;;;;;;5004021;28;20217;-78
2023/09/18 11:26:28;;;;;;;3.55;3.20;;;26.70;99.90;;;;;;5012367;28;20590;-75
2023/09/18 11:28:53;;;;;;;4.15;3.42;;;26.80;99.90;;;;;;5007108;28;20208;-74
2023/09/18 11:31:21;;;;;;;4.63;3.63;;;26.60;99.90;;;;;;5024754;28;20750;-74
2023/09/18 11:33:48;;;;;;;7.00;3.63;;;26.70;99.90;;;;;;5010571;28;20197;-76
2023/09/18 11:36:30;;;;;;;5.68;3.58;;;26.70;99.90;;;;;;5009843;28;20177;-73
2023/09/18 11:39:03;;;;;;;7.55;3.60;;;26.80;99.90;;;;;;5009204;28;20229;-74
2023/09/18 11:41:31;;;;;;;6.70;3.85;;;26.70;99.90;;;;;;5012022;28;20236;-76
2023/09/18 11:44:23;;;;;;;3.80;3.42;;;26.70;99.90;;;;;;5011166;28;20221;-76
2023/09/18 11:46:51;;;;;;;6.15;3.25;;;26.60;99.90;;;;;;5007346;28;20240;-74
2023/09/18 11:49:27;;;;;;;3.83;3.40;;;26.50;99.90;;;;;;5011114;28;20213;-73
2023/09/18 11:51:54;;;;;;;4.15;3.63;;;26.50;99.90;;;;;;5009999;28;20177;-74
2023/09/18 11:54:21;;;;;;;5.38;4.38;;;26.70;99.90;;;;;;5005198;28;20200;-74
2023/09/18 11:56:47;;;;;;;10.73;4.57;;;26.50;99.90;;;;;;5010068;28;20558;-74
2023/09/18 11:59:13;;;;;;;6.35;5.28;;;26.50;99.90;;;;;;5015427;28;20266;-73
2023/09/18 12:01:46;;;;;;;7.53;4.20;;;26.60;99.90;;;;;;5025031;28;20646;-74
2023/09/18 12:04:12;;;;;;;5.10;3.78;;;26.50;99.90;;;;;;5007354;28;20919;-74
2023/09/18 12:06:41;;;;;;;6.38;4.07;;;26.40;99.90;;;;;;5007758;28;20244;-73
2023/09/18 12:09:08;;;;;;;4.10;3.47;;;26.50;99.90;;;;;;5010076;28;20304;-73
2023/09/18 12:11:35;;;;;;;6.60;3.88;;;26.60;99.90;;;;;;5007493;28;20212;-77
2023/09/18 12:14:02;;;;;;;7.03;4.40;;;26.60;99.90;;;;;;5010756;28;20339;-80
2023/09/18 12:16:28;;;;;;;4.70;3.75;;;27.00;99.90;;;;;;5029857;28;20259;-79
2023/09/18 12:18:54;;;;;;;6.78;3.90;;;27.00;99.90;;;;;;5017002;28;20173;-78
2023/09/18 12:21:19;;;;;;;4.28;3.88;;;27.20;99.90;;;;;;5016108;28;20177;-79
2023/09/18 12:23:46;;;;;;;4.85;3.75;;;27.40;99.90;;;;;;5016133;28;20216;-80
2023/09/18 12:26:13;;;;;;;6.32;3.45;;;27.50;99.90;;;;;;5014573;28;20347;-80
2023/09/18 12:28:40;;;;;;;4.85;3.03;;;27.60;99.90;;;;;;5014117;28;20212;-78
2023/09/18 12:31:09;;;;;;;4.07;3.22;;;27.30;99.90;;;;;;5017446;28;20264;-80
2023/09/18 12:33:36;;;;;;;3.53;2.97;;;27.40;99.90;;;;;;5014498;28;20173;-79
2023/09/18 12:36:04;;;;;;;5.60;3.10;;;27.40;99.90;;;;;;5008960;28;20223;-80
2023/09/18 12:38:30;;;;;;;3.88;3.45;;;27.20;99.90;;;;;;5033752;28;20205;-79
2023/09/18 12:41:00;;;;;;;7.25;3.28;;;27.10;99.90;;;;;;5013742;28;20630;-80
2023/09/18 12:43:29;;;;;;;3.60;3.30;;;27.00;99.90;;;;;;5017362;28;20220;-79
2023/09/18 12:45:55;;;;;;;9.43;3.60;;;26.70;99.90;;;;;;5033960;28;20228;-79